Time;durP1;ratioP1;P1;durP2;ratioP2;P2;SDS_P1;SDS_P2;PMS_P1;PMS_P2;Temp;Humidity;BMP_temperature;BMP_pressure;BME280_temperature;BME280_humidity;BME280_pressure;Samples;Min_cycle;Max_cycle;Signal;HPM_P1;HPM_P2
2021/09/09 00:00:30;;;;;;;25.65;17.92;;;;;;;19.15;88.24;101162.97;5048557;28;20084;-64
2021/09/09 00:02:58;;;;;;;25.42;17.17;;;;;;;19.16;87.65;101162.78;5071266;28;20148;-63
2021/09/09 00:05:25;;;;;;;25.98;17.73;;;;;;;19.12;88.52;101163.38;5047833;28;20072;-63
2021/09/09 00:07:51;;;;;;;31.10;18.95;;;;;;;19.11;87.57;101167.03;5050596;28;20151;-62
2021/09/09 00:10:18;;;;;;;25.70;18.75;;;;;;;19.06;87.73;101159.66;5047004;28;20135;-63
2021/09/09 00:12:45;;;;;;;28.17;20.00;;;;;;;19.03;87.79;101156.56;5044390;28;20051;-63
2021/09/09 00:15:11;;;;;;;33.00;20.38;;;;;;;19.00;87.69;101149.81;5053291;28;20131;-63
2021/09/09 00:17:39;;;;;;;30.95;20.67;;;;;;;18.99;88.21;101147.34;5045673;28;20135;-62
2021/09/09 00:20:10;;;;;;;30.77;20.40;;;;;;;18.96;87.76;101153.88;5052566;28;20056;-63
2021/09/09 00:22:39;;;;;;;33.65;21.08;;;;;;;18.91;87.86;101154.44;5043538;28;20688;-63
2021/09/09 00:25:07;;;;;;;31.25;19.85;;;;;;;18.89;88.24;101143.16;5053289;28;20083;-63
2021/09/09 00:27:33;;;;;;;29.65;20.33;;;;;;;18.85;88.29;101133.94;5050554;28;20132;-63
2021/09/09 00:30:00;;;;;;;29.33;20.40;;;;;;;18.84;88.12;101123.53;5050282;28;20135;-63
2021/09/09 00:32:27;;;;;;;32.95;19.98;;;;;;;18.79;89.09;101129.38;5055918;28;20113;-63
2021/09/09 00:34:53;;;;;;;31.33;20.38;;;;;;;18.74;89.77;101123.84;5043033;28;20591;-63
2021/09/09 00:37:20;;;;;;;27.08;19.48;;;;;;;18.72;89.79;101126.69;5049427;28;20455;-61
2021/09/09 00:39:46;;;;;;;27.30;18.40;;;;;;;18.71;90.03;101127.69;5046027;28;20444;-63
2021/09/09 00:42:13;;;;;;;28.05;19.35;;;;;;;18.69;90.29;101126.25;5055552;28;20114;-63
2021/09/09 00:44:39;;;;;;;30.35;20.30;;;;;;;18.66;90.61;101116.81;5047716;28;20072;-64
2021/09/09 00:47:08;;;;;;;29.02;18.80;;;;;;;18.64;91.62;101115.34;5058022;28;20110;-63
2021/09/09 00:49:37;;;;;;;30.48;19.75;;;;;;;18.62;91.74;101118.22;5047782;28;20049;-63
2021/09/09 00:52:05;;;;;;;28.67;18.30;;;;;;;18.64;91.21;101113.53;5046201;28;20045;-63
2021/09/09 00:54:32;;;;;;;27.77;18.02;;;;;;;18.65;90.81;101112.50;5053658;28;20045;-63
2021/09/09 00:56:58;;;;;;;26.85;19.00;;;;;;;18.63;90.31;101106.56;5039598;28;20147;-63
2021/09/09 00:59:27;;;;;;;29.75;17.80;;;;;;;18.65;90.22;101098.41;5054361;28;20076;-62
2021/09/09 01:01:54;;;;;;;27.60;18.45;;;;;;;18.62;90.74;101096.97;5045278;28;21107;-62
2021/09/09 01:04:21;;;;;;;33.38;18.77;;;;;;;18.60;90.76;101101.63;5041210;28;20106;-62
2021/09/09 01:06:48;;;;;;;30.58;18.48;;;;;;;18.58;90.63;101103.66;5055635;28;20636;-64
2021/09/09 01:09:15;;;;;;;25.53;17.87;;;;;;;18.56;89.84;101098.56;5044988;28;20044;-64
2021/09/09 01:11:41;;;;;;;26.75;18.65;;;;;;;18.52;90.84;101094.66;5054149;28;20056;-61
2021/09/09 01:14:10;;;;;;;29.38;18.88;;;;;;;18.50;90.50;101095.84;5047983;28;20160;-64
2021/09/09 01:16:38;;;;;;;30.48;19.50;;;;;;;18.44;91.74;101089.44;5044728;28;20084;-60
2021/09/09 01:19:08;;;;;;;27.60;18.80;;;;;;;18.42;91.15;101085.34;5038654;28;20079;-61
2021/09/09 01:21:36;;;;;;;29.83;19.52;;;;;;;18.34;91.69;101084.47;5049238;28;20117;-60
2021/09/09 01:24:14;;;;;;;24.65;18.77;;;;;;;18.37;91.80;101085.94;5048151;28;20141;-64
2021/09/09 01:27:00;;;;;;;28.92;19.08;;;;;;;18.31;91.84;101092.81;5044475;28;20139;-64
2021/09/09 01:29:30;;;;;;;29.33;19.08;;;;;;;18.32;91.46;101090.97;5044626;28;20053;-62
2021/09/09 01:31:57;;;;;;;30.23;19.70;;;;;;;18.28;92.16;101084.41;5041281;28;20151;-63
2021/09/09 01:34:24;;;;;;;29.20;19.38;;;;;;;18.25;91.93;101082.97;5045918;28;20128;-61
2021/09/09 01:36:51;;;;;;;31.90;19.52;;;;;;;18.23;92.27;101085.00;5043601;28;20171;-63
2021/09/09 01:39:18;;;;;;;27.88;19.02;;;;;;;18.17;92.71;101081.28;5048026;28;20090;-63
2021/09/09 01:41:48;;;;;;;31.55;20.35;;;;;;;18.17;92.85;101069.84;5046619;28;20081;-63
2021/09/09 01:44:15;;;;;;;30.25;19.88;;;;;;;18.14;93.42;101078.97;5045994;28;20103;-63
2021/09/09 01:46:42;;;;;;;30.67;19.90;;;;;;;18.13;92.45;101084.47;5047391;28;20070;-63
2021/09/09 01:49:10;;;;;;;30.80;20.20;;;;;;;18.12;92.07;101072.22;5041588;28;20568;-64
2021/09/09 01:51:37;;;;;;;30.08;20.38;;;;;;;18.07;93.31;101088.72;5050371;28;20136;-63
2021/09/09 01:54:03;;;;;;;28.85;20.05;;;;;;;18.04;94.10;101078.47;5043381;28;20132;-64
2021/09/09 01:56:30;;;;;;;33.08;18.60;;;;;;;18.08;92.95;101073.63;5051845;28;20148;-64
2021/09/09 01:58:57;;;;;;;31.85;19.90;;;;;;;18.05;93.10;101079.28;5038808;28;20466;-64
2021/09/09 02:01:24;;;;;;;29.58;19.40;;;;;;;18.06;93.84;101067.69;5047365;28;20053;-63
2021/09/09 02:03:51;;;;;;;29.00;19.40;;;;;;;18.04;93.98;101073.16;5048992;28;20120;-64
2021/09/09 02:06:18;;;;;;;28.63;20.20;;;;;;;18.00;93.54;101065.78;5047259;28;20122;-63
2021/09/09 02:08:44;;;;;;;29.45;19.20;;;;;;;18.00;93.77;101063.94;5047402;28;20057;-63
2021/09/09 02:11:11;;;;;;;31.15;19.27;;;;;;;17.97;93.93;101066.97;5044212;28;20130;-64
2021/09/09 02:13:39;;;;;;;30.65;19.13;;;;;;;17.92;93.59;101061.41;5046799;28;20569;-64
2021/09/09 02:16:06;;;;;;;32.13;19.17;;;;;;;17.90;93.44;101056.28;5046660;28;20511;-64
2021/09/09 02:18:33;;;;;;;29.52;19.73;;;;;;;17.84;94.16;101058.88;5049310;28;20084;-63
2021/09/09 02:21:00;;;;;;;32.50;20.02;;;;;;;17.81;93.80;101057.38;5049432;28;20123;-62
2021/09/09 02:23:27;;;;;;;33.15;21.15;;;;;;;17.78;93.95;101045.31;5045766;28;20080;-63
2021/09/09 02:25:53;;;;;;;30.05;20.17;;;;;;;17.75;95.11;101058.16;5047296;28;20339;-63
2021/09/09 02:28:20;;;;;;;32.80;21.00;;;;;;;17.75;94.70;101053.66;5041264;28;20139;-63
2021/09/09 02:30:46;;;;;;;33.25;20.90;;;;;;;17.73;95.01;101053.03;5052388;28;20094;-64
2021/09/09 02:33:13;;;;;;;30.52;20.02;;;;;;;17.69;94.54;101056.25;5041552;28;20135;-64
2021/09/09 02:35:40;;;;;;;31.95;19.42;;;;;;;17.71;93.61;101057.69;5051412;28;20090;-63
2021/09/09 02:38:06;;;;;;;29.73;19.70;;;;;;;17.68;94.02;101058.09;5046939;28;20131;-64
2021/09/09 02:40:33;;;;;;;30.17;19.05;;;;;;;17.65;94.48;101050.50;5038873;28;20139;-64
2021/09/09 02:42:59;;;;;;;31.60;20.33;;;;;;;17.65;95.08;101054.97;5053360;28;20076;-64
2021/09/09 02:45:26;;;;;;;35.70;22.02;;;;;;;17.63;95.21;101065.78;5045305;28;20131;-63
2021/09/09 02:47:52;;;;;;;32.40;19.50;;;;;;;17.65;94.38;101058.44;5050838;28;20547;-64
2021/09/09 02:50:19;;;;;;;30.75;19.65;;;;;;;17.63;94.20;101057.00;5043467;28;20044;-64
2021/09/09 02:52:46;;;;;;;28.17;19.42;;;;;;;17.58;94.17;101058.38;5042260;28;20506;-63
2021/09/09 02:55:12;;;;;;;28.17;19.42;;;;;;;17.58;94.55;101070.81;5046161;28;20560;-64
2021/09/09 02:57:39;;;;;;;29.83;20.33;;;;;;;17.56;94.06;101059.56;5051540;28;20127;-64
2021/09/09 03:00:07;;;;;;;31.65;19.33;;;;;;;17.54;94.09;101056.28;5049342;28;20140;-63
2021/09/09 03:02:34;;;;;;;32.28;20.52;;;;;;;17.52;94.93;101055.63;5045712;28;20053;-63
2021/09/09 03:05:02;;;;;;;28.70;19.30;;;;;;;17.49;92.80;101048.88;5043328;28;20277;-63
2021/09/09 03:07:28;;;;;;;29.42;20.33;;;;;;;17.47;93.75;101056.22;5040400;28;20087;-63
2021/09/09 03:09:55;;;;;;;28.50;19.55;;;;;;;17.44;95.01;101053.91;5050006;28;20585;-63
2021/09/09 03:12:21;;;;;;;29.10;19.45;;;;;;;17.43;94.05;101056.78;5053782;28;20085;-64
2021/09/09 03:14:48;;;;;;;30.58;20.02;;;;;;;17.36;94.55;101059.31;5043465;28;20093;-64
2021/09/09 03:17:14;;;;;;;36.70;20.75;;;;;;;17.31;95.56;101056.44;5053332;28;20102;-64
2021/09/09 03:19:41;;;;;;;32.85;20.20;;;;;;;17.27;94.41;101045.38;5040344;28;20044;-64
2021/09/09 03:22:07;;;;;;;30.83;21.33;;;;;;;17.24;94.75;101048.38;5050168;28;20145;-64
2021/09/09 03:24:34;;;;;;;30.60;21.38;;;;;;;17.19;96.02;101048.13;5041159;28;20157;-64
2021/09/09 03:27:02;;;;;;;32.17;21.65;;;;;;;17.17;94.87;101050.94;5054702;28;20059;-64
2021/09/09 03:29:29;;;;;;;33.17;21.25;;;;;;;17.16;95.01;101041.34;5047272;28;20373;-64
2021/09/09 03:31:55;;;;;;;31.15;21.00;;;;;;;17.12;95.00;101034.75;5043753;28;20144;-63
2021/09/09 03:34:22;;;;;;;32.35;21.83;;;;;;;17.10;95.64;101036.78;5051607;28;20059;-63
2021/09/09 03:36:48;;;;;;;29.65;20.52;;;;;;;17.07;95.87;101034.50;5046763;28;20052;-64
2021/09/09 03:39:15;;;;;;;31.73;21.45;;;;;;;17.05;96.96;101035.69;5051792;28;20136;-64
2021/09/09 03:41:41;;;;;;;36.10;22.77;;;;;;;17.02;98.04;101036.06;5047191;28;20056;-63
2021/09/09 03:44:08;;;;;;;35.92;20.92;;;;;;;17.01;97.32;101029.94;5044252;28;20095;-63
2021/09/09 03:46:37;;;;;;;32.40;21.27;;;;;;;16.91;98.64;101035.50;5048011;28;20048;-63
2021/09/09 03:49:03;;;;;;;31.85;20.73;;;;;;;16.95;98.63;101028.00;5047794;28;20044;-63
2021/09/09 03:51:30;;;;;;;35.15;21.70;;;;;;;16.94;98.38;101032.50;5054485;28;20087;-63
2021/09/09 03:53:56;;;;;;;36.13;21.75;;;;;;;16.95;98.36;101028.00;5046067;28;20099;-64
2021/09/09 03:56:23;;;;;;;33.95;21.77;;;;;;;16.97;98.16;101026.00;5056410;28;20140;-63
2021/09/09 03:58:49;;;;;;;32.50;20.77;;;;;;;16.92;98.74;101037.16;5040959;28;20140;-63
2021/09/09 04:01:16;;;;;;;34.92;23.50;;;;;;;16.94;98.81;101036.97;5054768;28;20048;-63
2021/09/09 04:03:45;;;;;;;37.92;23.58;;;;;;;16.93;98.96;101027.38;5054569;28;20052;-63
2021/09/09 04:06:12;;;;;;;37.38;24.15;;;;;;;16.88;98.98;101030.59;5048682;28;20542;-63
2021/09/09 04:08:39;;;;;;;32.58;22.10;;;;;;;16.88;97.84;101027.13;5051530;28;20925;-63
2021/09/09 04:11:05;;;;;;;34.75;22.98;;;;;;;16.85;97.92;101022.16;5046512;28;20052;-63
2021/09/09 04:13:32;;;;;;;38.13;23.27;;;;;;;16.84;98.37;101021.34;5049684;28;20380;-63
2021/09/09 04:15:58;;;;;;;41.38;23.83;;;;;;;16.79;98.73;101018.38;5051328;28;20080;-63
2021/09/09 04:18:25;;;;;;;35.72;23.50;;;;;;;16.77;97.71;101012.47;5056824;28;20059;-63
2021/09/09 04:20:51;;;;;;;37.20;24.58;;;;;;;16.72;98.95;101013.00;5052800;28;20393;-63
2021/09/09 04:23:17;;;;;;;36.20;24.30;;;;;;;16.74;99.27;101015.44;5044083;28;20091;-63
2021/09/09 04:25:44;;;;;;;37.05;24.63;;;;;;;16.72;99.41;101007.72;5052679;28;20099;-63
2021/09/09 04:28:10;;;;;;;39.45;24.38;;;;;;;16.75;98.37;101009.16;5038802;28;20083;-63
2021/09/09 04:30:37;;;;;;;38.25;25.08;;;;;;;16.73;98.74;101001.41;5050268;28;20049;-63
2021/09/09 04:33:03;;;;;;;35.80;24.55;;;;;;;16.73;98.74;101003.22;5045390;28;20097;-62
2021/09/09 04:35:30;;;;;;;35.70;24.13;;;;;;;16.70;98.98;100999.13;5054494;28;20139;-63
2021/09/09 04:37:56;;;;;;;37.75;24.85;;;;;;;16.68;98.44;100997.66;5053681;28;20053;-63
2021/09/09 04:40:23;;;;;;;32.88;22.73;;;;;;;16.67;98.93;101001.31;5041343;28;20135;-63
2021/09/09 04:42:49;;;;;;;35.85;24.65;;;;;;;16.67;98.48;100998.66;5052179;28;20120;-63
2021/09/09 04:45:16;;;;;;;36.28;23.45;;;;;;;16.68;98.35;101000.28;5047627;28;20476;-63
2021/09/09 04:47:42;;;;;;;33.03;21.58;;;;;;;16.71;96.29;101010.53;5055188;28;20156;-63
2021/09/09 04:50:09;;;;;;;36.00;24.85;;;;;;;16.70;97.30;101009.72;5044566;28;20055;-63
2021/09/09 04:52:36;;;;;;;33.97;23.98;;;;;;;16.69;96.23;101004.59;5051964;28;20052;-63
2021/09/09 04:55:04;;;;;;;36.05;24.80;;;;;;;16.67;96.82;101007.44;5046508;28;20155;-63
2021/09/09 04:57:30;;;;;;;38.70;25.83;;;;;;;16.64;97.69;101013.09;5049440;28;20551;-63
2021/09/09 04:59:57;;;;;;;40.42;27.00;;;;;;;16.60;98.31;101010.00;5057331;28;20051;-63
2021/09/09 05:02:23;;;;;;;44.08;26.60;;;;;;;16.63;97.02;101008.81;5045102;28;20143;-63
2021/09/09 05:04:50;;;;;;;37.95;25.40;;;;;;;16.59;97.22;101003.03;5051445;28;20464;-63
2021/09/09 05:07:16;;;;;;;39.33;25.40;;;;;;;16.59;98.11;101002.22;5042095;28;20060;-63
2021/09/09 05:09:43;;;;;;;46.35;27.63;;;;;;;16.51;97.98;101000.47;5046202;28;20144;-63
2021/09/09 05:12:09;;;;;;;37.72;24.70;;;;;;;16.53;98.35;101001.13;5055019;28;20373;-63
2021/09/09 05:14:36;;;;;;;44.88;26.55;;;;;;;16.51;98.95;101003.13;5044312;28;20160;-62
2021/09/09 05:17:03;;;;;;;40.70;26.48;;;;;;;16.50;98.59;101004.13;5053359;28;20081;-63
2021/09/09 05:19:29;;;;;;;39.45;26.45;;;;;;;16.49;99.28;100997.19;5044915;28;20151;-63
2021/09/09 05:21:55;;;;;;;41.60;25.45;;;;;;;16.49;99.69;100991.09;5050564;28;20092;-63
2021/09/09 05:24:22;;;;;;;36.90;25.38;;;;;;;16.46;100.00;100992.25;5043185;28;20152;-63
2021/09/09 05:26:48;;;;;;;37.08;24.73;;;;;;;16.47;98.58;100993.09;5055217;28;20059;-63
2021/09/09 05:29:15;;;;;;;42.63;25.30;;;;;;;16.47;99.75;100990.44;5053095;28;20169;-63
2021/09/09 05:31:41;;;;;;;36.67;23.05;;;;;;;16.51;97.90;100986.44;5047157;28;20135;-63
2021/09/09 05:34:08;;;;;;;36.22;24.98;;;;;;;16.51;98.89;100991.72;5045634;28;20305;-63
2021/09/09 05:36:34;;;;;;;45.70;29.25;;;;;;;16.52;99.17;100988.88;5039257;28;20078;-63
2021/09/09 05:39:01;;;;;;;44.10;29.10;;;;;;;16.54;98.06;100988.69;5046683;28;20139;-63
2021/09/09 05:41:27;;;;;;;40.50;25.92;;;;;;;16.53;98.67;100982.59;5046410;28;20481;-63
2021/09/09 05:43:54;;;;;;;37.38;25.05;;;;;;;16.50;99.51;100990.88;5050343;28;20111;-63
2021/09/09 05:46:20;;;;;;;39.60;24.98;;;;;;;16.49;99.23;100991.09;5050690;28;20068;-63
2021/09/09 05:48:46;;;;;;;35.65;23.30;;;;;;;16.51;99.64;100989.06;5045145;28;20053;-63
2021/09/09 05:51:13;;;;;;;42.33;26.05;;;;;;;16.51;99.85;100986.44;5049100;28;20589;-62
2021/09/09 05:53:39;;;;;;;43.75;26.60;;;;;;;16.51;100.00;100987.25;5045525;28;20139;-63
2021/09/09 05:56:06;;;;;;;41.58;24.73;;;;;;;16.53;100.00;100990.53;5053290;28;20132;-63
2021/09/09 05:58:32;;;;;;;37.85;25.42;;;;;;;16.53;100.00;100990.53;5047139;28;20468;-63
2021/09/09 06:00:59;;;;;;;46.63;29.38;;;;;;;16.60;100.00;100996.75;5046413;28;20477;-63
2021/09/09 06:03:29;;;;;;;48.17;29.45;;;;;;;16.64;99.96;100994.56;5044421;28;20053;-63
2021/09/09 06:06:03;;;;;;;43.90;26.73;;;;;;;16.69;99.99;100996.66;5040588;28;20067;-63
2021/09/09 06:08:35;;;;;;;40.10;25.67;;;;;;;16.73;100.00;101001.41;5053421;28;20053;-64
2021/09/09 06:11:02;;;;;;;40.17;25.77;;;;;;;16.75;100.00;101002.03;5045687;28;20076;-64
2021/09/09 06:13:29;;;;;;;39.58;24.90;;;;;;;16.77;100.00;101001.84;5049466;28;20048;-63
2021/09/09 06:15:55;;;;;;;39.47;25.52;;;;;;;16.77;100.00;101000.03;5036250;28;20131;-63
2021/09/09 06:18:21;;;;;;;39.95;25.50;;;;;;;16.82;100.00;100996.03;5046377;28;20044;-64
2021/09/09 06:20:48;;;;;;;44.25;24.83;;;;;;;16.88;99.80;100995.31;5047548;28;20318;-64
2021/09/09 06:23:14;;;;;;;39.20;25.10;;;;;;;16.94;99.51;100986.63;5050860;28;20057;-64
2021/09/09 06:25:41;;;;;;;35.33;24.35;;;;;;;16.97;99.90;100987.09;5053138;28;20075;-64
2021/09/09 06:28:09;;;;;;;37.15;24.98;;;;;;;17.00;100.00;100992.00;5044457;28;20484;-64
2021/09/09 06:30:37;;;;;;;32.33;22.27;;;;;;;17.08;98.32;100982.31;5044329;28;20044;-64
2021/09/09 06:33:03;;;;;;;40.60;25.15;;;;;;;17.10;99.19;100980.31;5046441;28;20076;-64
2021/09/09 06:35:29;;;;;;;44.03;26.88;;;;;;;17.14;99.14;100979.75;5052290;28;20048;-64
2021/09/09 06:37:57;;;;;;;44.15;27.58;;;;;;;17.20;98.73;100984.28;5043859;28;20040;-65
2021/09/09 06:40:23;;;;;;;38.00;25.80;;;;;;;17.25;98.61;100986.41;5051176;28;20440;-64
2021/09/09 06:42:50;;;;;;;33.45;22.33;;;;;;;17.30;97.34;100978.69;5049154;28;20139;-65
2021/09/09 06:45:16;;;;;;;40.95;25.27;;;;;;;17.37;97.31;100984.91;5032613;28;20799;-63
2021/09/09 06:47:43;;;;;;;42.40;25.17;;;;;;;17.46;97.75;100984.78;5050927;28;20144;-64
2021/09/09 06:50:10;;;;;;;39.65;25.80;;;;;;;17.48;98.91;100974.81;5045267;28;20151;-64
2021/09/09 06:52:38;;;;;;;41.88;25.05;;;;;;;17.53;97.25;100986.50;5055067;28;20048;-64
2021/09/09 06:55:05;;;;;;;37.90;25.63;;;;;;;17.59;97.25;100976.97;5043596;28;20151;-64
2021/09/09 06:57:31;;;;;;;38.92;26.02;;;;;;;17.63;97.92;100978.22;5048209;28;20136;-64
2021/09/09 06:59:58;;;;;;;40.97;25.55;;;;;;;17.68;96.89;100970.53;5044258;28;20516;-64
2021/09/09 07:02:25;;;;;;;38.65;25.33;;;;;;;17.72;97.17;100974.47;5041010;28;20138;-64
2021/09/09 07:04:51;;;;;;;43.97;25.85;;;;;;;17.73;96.80;100967.31;5050627;28;20045;-64
2021/09/09 07:07:18;;;;;;;44.72;27.17;;;;;;;17.78;97.68;100965.72;5051103;28;20491;-64
2021/09/09 07:09:45;;;;;;;39.13;25.30;;;;;;;17.85;97.04;100970.31;5054358;28;20472;-64
2021/09/09 07:12:12;;;;;;;44.25;24.52;;;;;;;17.90;95.92;100976.69;5043644;28;20049;-64
2021/09/09 07:14:38;;;;;;;40.78;25.77;;;;;;;17.94;96.47;100969.16;5049441;28;20057;-64
2021/09/09 07:17:05;;;;;;;42.17;27.83;;;;;;;18.00;96.68;100975.56;5055510;28;20163;-65
2021/09/09 07:19:31;;;;;;;40.17;26.73;;;;;;;18.00;96.88;100978.19;5047460;28;20479;-65
2021/09/09 07:21:58;;;;;;;41.83;27.50;;;;;;;18.05;96.69;100975.78;5055217;28;20103;-65
2021/09/09 07:24:24;;;;;;;34.50;22.95;;;;;;;18.13;94.85;100984.44;5048378;28;20476;-65
2021/09/09 07:26:51;;;;;;;39.85;25.83;;;;;;;18.23;95.26;100984.09;5049569;28;20131;-62
2021/09/09 07:29:17;;;;;;;46.35;25.23;;;;;;;18.29;93.30;100987.81;5046747;28;21464;-62
2021/09/09 07:31:45;;;;;;;41.80;25.27;;;;;;;18.34;94.15;100993.38;5055799;28;20140;-62
2021/09/09 07:34:15;;;;;;;42.75;26.25;;;;;;;18.41;94.69;101007.50;5052524;28;20075;-63
2021/09/09 07:36:42;;;;;;;40.00;25.38;;;;;;;18.49;93.93;101001.25;5048971;28;20072;-65
2021/09/09 07:39:08;;;;;;;36.50;25.02;;;;;;;18.58;93.75;101000.06;5053110;28;20651;-62
2021/09/09 07:41:35;;;;;;;39.35;25.42;;;;;;;18.66;93.56;100978.66;5046558;28;20055;-63
2021/09/09 07:44:02;;;;;;;39.92;25.50;;;;;;;18.71;94.06;100980.72;5056260;28;20577;-65
2021/09/09 07:46:30;;;;;;;41.53;24.77;;;;;;;18.78;93.47;100992.22;5052664;28;20453;-65
2021/09/09 07:48:56;;;;;;;34.45;21.88;;;;;;;18.85;93.14;100990.44;5057088;28;20131;-65
2021/09/09 07:51:23;;;;;;;46.03;25.10;;;;;;;18.93;94.01;100973.50;5057130;28;20152;-63
2021/09/09 07:53:50;;;;;;;37.78;24.33;;;;;;;19.00;93.66;100982.34;5046696;28;20058;-65
2021/09/09 07:56:16;;;;;;;36.63;25.55;;;;;;;19.09;93.48;100988.28;5050978;28;20126;-62
2021/09/09 07:58:48;;;;;;;33.03;22.52;;;;;;;19.19;90.81;100991.41;5046216;28;20058;-63
2021/09/09 08:01:17;;;;;;;33.25;21.23;;;;;;;19.26;86.84;100986.09;5056611;28;20048;-65
2021/09/09 08:03:45;;;;;;;34.30;20.15;;;;;;;19.41;87.00;100985.97;5051166;28;20048;-65
2021/09/09 08:06:12;;;;;;;32.40;20.17;;;;;;;19.58;86.46;100997.84;5057942;28;20140;-65
2021/09/09 08:08:39;;;;;;;32.42;20.25;;;;;;;19.64;83.31;100994.41;5045728;28;20053;-62
2021/09/09 08:11:06;;;;;;;28.40;17.33;;;;;;;19.79;83.39;100990.75;5046848;28;20080;-63
2021/09/09 08:13:34;;;;;;;34.60;20.52;;;;;;;19.81;81.09;100991.38;5054612;28;20052;-62
2021/09/09 08:16:01;;;;;;;27.90;18.30;;;;;;;19.92;81.31;100996.09;5048622;28;20147;-63
2021/09/09 08:18:28;;;;;;;30.80;20.13;;;;;;;19.99;80.01;100996.09;5053723;28;20053;-62
2021/09/09 08:20:54;;;;;;;32.30;20.27;;;;;;;20.12;79.73;100991.59;5042469;28;20076;-62
2021/09/09 08:23:22;;;;;;;32.67;18.75;;;;;;;20.26;80.48;100987.06;5047829;28;20258;-63
2021/09/09 08:25:49;;;;;;;26.43;16.33;;;;;;;20.40;80.38;100985.19;5047241;28;20153;-63
2021/09/09 08:28:18;;;;;;;27.63;19.23;;;;;;;20.53;78.92;100976.38;5057791;28;20151;-63
2021/09/09 08:30:46;;;;;;;28.10;18.38;;;;;;;20.68;78.87;100977.00;5072281;28;20076;-63
2021/09/09 08:33:13;;;;;;;27.75;19.42;;;;;;;20.88;80.23;100979.59;5062353;28;20411;-63
2021/09/09 08:35:41;;;;;;;29.05;18.77;;;;;;;21.01;76.50;100970.72;5067134;28;20095;-62
2021/09/09 08:38:07;;;;;;;26.83;17.98;;;;;;;21.23;75.16;100984.56;5061043;28;20423;-62
2021/09/09 08:40:36;;;;;;;29.30;17.52;;;;;;;21.39;75.75;100972.56;5051968;28;20087;-62
2021/09/09 08:43:03;;;;;;;29.85;18.38;;;;;;;21.61;75.67;100977.59;5064036;28;20756;-63
2021/09/09 08:45:30;;;;;;;28.92;19.23;;;;;;;21.77;73.08;100976.25;5072368;28;20534;-63
2021/09/09 08:48:02;;;;;;;24.83;17.52;;;;;;;21.97;73.09;100976.91;5075817;28;20539;-63
2021/09/09 08:50:31;;;;;;;23.60;15.25;;;;;;;22.16;71.45;100976.97;5064558;28;20048;-63
2021/09/09 08:53:02;;;;;;;24.08;16.35;;;;;;;22.34;69.03;100973.53;5064296;28;20143;-63
2021/09/09 08:55:29;;;;;;;26.75;17.15;;;;;;;22.52;71.40;100968.22;5067884;28;20542;-63
2021/09/09 08:57:56;;;;;;;24.90;14.43;;;;;;;22.68;70.62;100961.47;5077879;28;20858;-63
2021/09/09 09:00:23;;;;;;;23.88;16.85;;;;;;;22.89;69.24;100963.69;5058136;28;20052;-63
2021/09/09 09:02:52;;;;;;;28.60;17.10;;;;;;;22.97;67.96;100965.22;5058553;28;20138;-63
2021/09/09 09:05:20;;;;;;;31.33;16.92;;;;;;;23.15;68.76;100975.13;5067190;28;20058;-63
2021/09/09 09:07:56;;;;;;;26.33;18.00;;;;;;;23.34;68.81;100970.53;5073332;28;20552;-63
2021/09/09 09:10:22;;;;;;;32.22;16.67;;;;;;;23.43;66.34;100965.69;5066885;28;20132;-63
2021/09/09 09:12:49;;;;;;;26.70;16.73;;;;;;;23.58;66.52;100976.78;5064703;28;20071;-63
2021/09/09 09:15:20;;;;;;;27.25;15.65;;;;;;;23.67;64.62;100971.91;5068662;28;20083;-63
2021/09/09 09:18:08;;;;;;;21.88;16.52;;;;;;;23.91;65.42;100970.09;5060850;28;20047;-63
2021/09/09 09:20:49;;;;;;;26.02;16.50;;;;;;;24.08;65.20;100967.56;5067102;28;20056;-63
2021/09/09 09:23:22;;;;;;;24.23;16.27;;;;;;;24.26;65.17;100963.94;5055976;28;20088;-63
2021/09/09 09:26:01;;;;;;;23.55;15.20;;;;;;;24.47;66.29;100968.69;5071966;28;20483;-63
2021/09/09 09:28:39;;;;;;;22.38;16.00;;;;;;;24.68;64.45;100961.13;5060428;28;20080;-63
2021/09/09 09:31:14;;;;;;;24.30;15.25;;;;;;;24.75;63.38;100972.50;5058606;28;20049;-63
2021/09/09 09:33:55;;;;;;;21.35;15.02;;;;;;;24.96;63.15;100968.38;5071715;28;20060;-63
2021/09/09 09:36:31;;;;;;;19.63;13.23;;;;;;;25.11;62.14;100969.72;5073113;28;20136;-63
2021/09/09 09:39:15;;;;;;;22.73;14.07;;;;;;;25.22;59.00;100971.56;5073696;28;20131;-63
2021/09/09 09:42:05;;;;;;;23.38;13.65;;;;;;;25.20;58.45;100981.72;5057533;28;20147;-63
2021/09/09 09:44:42;;;;;;;22.92;13.55;;;;;;;25.35;59.01;100986.59;5067519;28;20164;-63
2021/09/09 09:47:10;;;;;;;24.77;13.88;;;;;;;25.27;58.93;100987.78;5059543;28;20539;-63
2021/09/09 09:49:39;;;;;;;;;;;;;;;25.40;60.21;100983.97;5073635;28;20483;-63
2021/09/09 09:52:06;;;;;;;22.70;14.75;;;;;;;25.44;59.42;100979.75;5064883;28;20028;-64
2021/09/09 09:54:35;;;;;;;23.85;16.08;;;;;;;25.53;60.21;100983.69;5052536;28;20059;-63
2021/09/09 09:57:02;;;;;;;22.38;14.98;;;;;;;25.62;59.75;100982.22;5061559;28;20088;-63
2021/09/09 09:59:29;;;;;;;25.63;14.77;;;;;;;25.59;59.34;100979.22;5068806;28;20534;-63
2021/09/09 10:01:55;;;;;;;19.30;14.57;;;;;;;25.61;59.45;100969.03;5072710;28;20196;-63
2021/09/09 10:04:22;;;;;;;14.90;12.23;;;;;;;25.88;60.41;100979.97;5062557;28;20457;-63
2021/09/09 10:06:51;;;;;;;20.58;13.60;;;;;;;26.08;58.78;100968.72;5072939;28;20039;-63
2021/09/09 10:09:19;;;;;;;25.08;15.77;;;;;;;26.43;58.19;100978.38;5054535;28;20492;-63
2021/09/09 10:11:46;;;;;;;23.27;15.75;;;;;;;26.44;57.10;100972.75;5066779;28;20802;-63
2021/09/09 10:14:20;;;;;;;20.50;14.32;;;;;;;26.56;57.92;100977.19;5062729;28;20515;-63
2021/09/09 10:16:48;;;;;;;24.88;15.32;;;;;;;26.69;57.86;100976.84;5071390;28;20135;-64
2021/09/09 10:19:23;;;;;;;21.88;15.35;;;;;;;26.60;57.25;100975.69;5065911;28;20487;-63
2021/09/09 10:21:53;;;;;;;23.55;15.25;;;;;;;26.88;57.94;100974.66;5073745;28;20138;-63
2021/09/09 10:24:29;;;;;;;24.30;17.15;;;;;;;26.90;56.40;100971.72;5066945;28;20542;-63
2021/09/09 10:27:21;;;;;;;21.42;16.38;;;;;;;26.98;56.45;100972.06;5059617;28;20428;-64
2021/09/09 10:29:53;;;;;;;25.40;16.85;;;;;;;26.99;57.00;100970.19;5070184;28;20428;-64
2021/09/09 10:32:29;;;;;;;27.98;15.93;;;;;;;27.13;56.31;100970.59;5068576;28;20471;-64
2021/09/09 10:35:14;;;;;;;25.58;15.65;;;;;;;27.39;55.97;100967.13;5070356;28;20156;-65
2021/09/09 10:37:44;;;;;;;22.85;14.23;;;;;;;27.61;55.96;100972.44;5059960;28;20158;-65
2021/09/09 10:40:32;;;;;;;19.55;13.35;;;;;;;27.85;55.04;100971.28;5064683;28;20334;-63
2021/09/09 10:43:10;;;;;;;23.08;13.98;;;;;;;28.04;55.76;100952.84;5067509;28;20235;-63
2021/09/09 10:45:44;;;;;;;22.83;15.73;;;;;;;28.00;53.21;100964.13;5071297;28;20595;-64
2021/09/09 10:48:21;;;;;;;19.98;14.35;;;;;;;28.27;53.26;100970.53;5064961;28;20575;-64
2021/09/09 10:50:57;;;;;;;21.63;15.13;;;;;;;28.39;53.26;100961.13;5072395;28;20499;-64
2021/09/09 10:53:55;;;;;;;22.40;15.23;;;;;;;28.68;54.01;100958.06;5059152;28;20288;-64
2021/09/09 10:56:42;;;;;;;26.40;15.88;;;;;;;28.59;52.19;100955.03;5058913;28;20752;-64
2021/09/09 10:59:20;;;;;;;22.67;14.80;;;;;;;28.94;52.94;100960.84;5064696;28;20614;-64
2021/09/09 11:01:49;;;;;;;23.85;16.38;;;;;;;28.86;51.98;100961.34;5069376;28;20076;-63
2021/09/09 11:04:30;;;;;;;26.42;16.00;;;;;;;28.82;52.13;100955.69;5070281;28;20381;-64
2021/09/09 11:06:58;;;;;;;22.83;16.58;;;;;;;28.94;51.17;100952.75;5060288;28;20135;-63
2021/09/09 11:09:25;;;;;;;;;;;;;;;29.10;51.45;100951.69;5069264;28;20480;-63
2021/09/09 11:12:02;;;;;;;23.27;15.43;;;;;;;29.45;51.53;100952.84;5068481;28;20016;-64
2021/09/09 11:14:31;;;;;;;24.65;15.60;;;;;;;29.40;50.96;100954.72;5069032;28;20543;-65